sensor_id;sensor_type;location;lat;lon;timestamp;temperature;humidity
7606;DHT22;3844;53.360;9.738;2022-10-13T00:00:25;7.30;95.70
7606;DHT22;3844;53.360;9.738;2022-10-13T00:02:26;7.30;95.70
7606;DHT22;3844;53.360;9.738;2022-10-13T00:04:27;7.30;95.70
7606;DHT22;3844;53.360;9.738;2022-10-13T00:06:27;7.30;95.70
7606;DHT22;3844;53.360;9.738;2022-10-13T00:08:28;7.30;95.70
7606;DHT22;3844;53.360;9.738;2022-10-13T00:12:34;7.30;95.70
7606;DHT22;3844;53.360;9.738;2022-10-13T00:14:34;7.30;95.70
7606;DHT22;3844;53.360;9.738;2022-10-13T00:16:35;7.30;95.70
7606;DHT22;3844;53.360;9.738;2022-10-13T00:18:36;7.30;95.70
7606;DHT22;3844;53.360;9.738;2022-10-13T00:20:48;7.30;95.70
7606;DHT22;3844;53.360;9.738;2022-10-13T00:22:48;7.30;95.70
7606;DHT22;3844;53.360;9.738;2022-10-13T00:24:50;7.20;95.70
7606;DHT22;3844;53.360;9.738;2022-10-13T00:26:51;7.20;95.70
7606;DHT22;3844;53.360;9.738;2022-10-13T00:28:53;7.20;95.70
7606;DHT22;3844;53.360;9.738;2022-10-13T00:30:55;7.20;95.70
7606;DHT22;3844;53.360;9.738;2022-10-13T00:32:55;7.10;95.70
7606;DHT22;3844;53.360;9.738;2022-10-13T00:34:56;7.10;95.70
7606;DHT22;3844;53.360;9.738;2022-10-13T00:36:57;7.10;95.70
7606;DHT22;3844;53.360;9.738;2022-10-13T00:38:58;7.10;95.70
7606;DHT22;3844;53.360;9.738;2022-10-13T00:40:59;7.10;95.70
7606;DHT22;3844;53.360;9.738;2022-10-13T00:42:59;7.00;95.70
7606;DHT22;3844;53.360;9.738;2022-10-13T00:45:25;7.00;95.70
7606;DHT22;3844;53.360;9.738;2022-10-13T00:47:32;7.00;95.70
7606;DHT22;3844;53.360;9.738;2022-10-13T00:49:34;7.00;95.70
7606;DHT22;3844;53.360;9.738;2022-10-13T00:51:40;7.00;95.70
7606;DHT22;3844;53.360;9.738;2022-10-13T00:53:42;7.00;95.70
7606;DHT22;3844;53.360;9.738;2022-10-13T00:55:45;7.00;95.70
7606;DHT22;3844;53.360;9.738;2022-10-13T00:57:47;6.90;95.70
7606;DHT22;3844;53.360;9.738;2022-10-13T01:00:11;6.90;95.70
7606;DHT22;3844;53.360;9.738;2022-10-13T01:02:12;6.80;95.70
7606;DHT22;3844;53.360;9.738;2022-10-13T01:04:12;6.80;95.70
7606;DHT22;3844;53.360;9.738;2022-10-13T01:06:14;6.80;95.70
7606;DHT22;3844;53.360;9.738;2022-10-13T01:08:17;6.70;95.70
7606;DHT22;3844;53.360;9.738;2022-10-13T01:10:42;6.70;95.70
7606;DHT22;3844;53.360;9.738;2022-10-13T01:12:49;6.70;95.70
7606;DHT22;3844;53.360;9.738;2022-10-13T01:14:58;6.70;95.70
7606;DHT22;3844;53.360;9.738;2022-10-13T01:19:46;6.60;95.70
7606;DHT22;3844;53.360;9.738;2022-10-13T01:31:36;6.40;95.70
7606;DHT22;3844;53.360;9.738;2022-10-13T01:33:43;6.30;95.70
7606;DHT22;3844;53.360;9.738;2022-10-13T01:38:02;6.30;95.70
7606;DHT22;3844;53.360;9.738;2022-10-13T01:44:59;6.10;95.70
7606;DHT22;3844;53.360;9.738;2022-10-13T01:47:02;6.00;95.70
7606;DHT22;3844;53.360;9.738;2022-10-13T01:49:09;6.00;95.70
7606;DHT22;3844;53.360;9.738;2022-10-13T01:51:14;6.00;95.70
7606;DHT22;3844;53.360;9.738;2022-10-13T01:53:17;6.00;95.70
7606;DHT22;3844;53.360;9.738;2022-10-13T01:55:18;6.00;95.70
7606;DHT22;3844;53.360;9.738;2022-10-13T01:57:34;6.00;95.70
7606;DHT22;3844;53.360;9.738;2022-10-13T01:59:36;6.00;95.70
7606;DHT22;3844;53.360;9.738;2022-10-13T02:03:54;6.00;95.70
7606;DHT22;3844;53.360;9.738;2022-10-13T02:06:14;6.00;95.70
7606;DHT22;3844;53.360;9.738;2022-10-13T02:11:18;6.00;95.70
7606;DHT22;3844;53.360;9.738;2022-10-13T02:13:22;6.00;95.70
7606;DHT22;3844;53.360;9.738;2022-10-13T02:15:30;6.00;95.70
7606;DHT22;3844;53.360;9.738;2022-10-13T02:17:32;6.00;95.70
7606;DHT22;3844;53.360;9.738;2022-10-13T02:19:35;6.00;95.70
7606;DHT22;3844;53.360;9.738;2022-10-13T02:21:36;6.00;95.70
7606;DHT22;3844;53.360;9.738;2022-10-13T02:23:37;6.10;95.70
7606;DHT22;3844;53.360;9.738;2022-10-13T02:25:38;6.10;95.70
7606;DHT22;3844;53.360;9.738;2022-10-13T02:27:40;6.10;95.70
7606;DHT22;3844;53.360;9.738;2022-10-13T02:29:55;6.10;95.70
7606;DHT22;3844;53.360;9.738;2022-10-13T02:31:56;6.10;95.70
7606;DHT22;3844;53.360;9.738;2022-10-13T02:33:57;6.10;95.70
7606;DHT22;3844;53.360;9.738;2022-10-13T02:35:57;6.10;95.70
7606;DHT22;3844;53.360;9.738;2022-10-13T02:37:58;6.10;95.70
7606;DHT22;3844;53.360;9.738;2022-10-13T02:39:59;6.10;95.70
7606;DHT22;3844;53.360;9.738;2022-10-13T02:42:00;6.10;95.70
7606;DHT22;3844;53.360;9.738;2022-10-13T02:44:00;6.10;95.70
7606;DHT22;3844;53.360;9.738;2022-10-13T02:46:01;6.20;95.70
7606;DHT22;3844;53.360;9.738;2022-10-13T02:48:02;6.20;95.70
7606;DHT22;3844;53.360;9.738;2022-10-13T02:50:03;6.20;95.70
7606;DHT22;3844;53.360;9.738;2022-10-13T02:52:04;6.20;95.70
7606;DHT22;3844;53.360;9.738;2022-10-13T02:54:05;6.20;95.70
7606;DHT22;3844;53.360;9.738;2022-10-13T02:56:06;6.30;95.70
7606;DHT22;3844;53.360;9.738;2022-10-13T02:58:07;6.30;95.70
7606;DHT22;3844;53.360;9.738;2022-10-13T03:00:08;6.20;95.70
7606;DHT22;3844;53.360;9.738;2022-10-13T03:02:09;6.20;95.70
7606;DHT22;3844;53.360;9.738;2022-10-13T03:04:10;6.30;95.70
7606;DHT22;3844;53.360;9.738;2022-10-13T03:06:10;6.20;95.70
7606;DHT22;3844;53.360;9.738;2022-10-13T03:08:11;6.20;95.70
7606;DHT22;3844;53.360;9.738;2022-10-13T03:10:12;6.20;95.70
7606;DHT22;3844;53.360;9.738;2022-10-13T03:12:12;6.20;95.70
7606;DHT22;3844;53.360;9.738;2022-10-13T03:14:13;6.10;95.70
7606;DHT22;3844;53.360;9.738;2022-10-13T03:16:14;6.10;95.70
7606;DHT22;3844;53.360;9.738;2022-10-13T03:18:14;6.10;95.70
7606;DHT22;3844;53.360;9.738;2022-10-13T03:20:15;6.10;95.70
7606;DHT22;3844;53.360;9.738;2022-10-13T03:22:16;6.20;95.70
7606;DHT22;3844;53.360;9.738;2022-10-13T03:24:17;6.20;95.70
7606;DHT22;3844;53.360;9.738;2022-10-13T03:26:17;6.20;95.70
7606;DHT22;3844;53.360;9.738;2022-10-13T03:28:18;6.20;95.70
7606;DHT22;3844;53.360;9.738;2022-10-13T03:30:19;6.30;95.70
7606;DHT22;3844;53.360;9.738;2022-10-13T03:32:19;6.30;95.70
7606;DHT22;3844;53.360;9.738;2022-10-13T03:34:20;6.30;95.70
7606;DHT22;3844;53.360;9.738;2022-10-13T03:36:21;6.40;95.70
7606;DHT22;3844;53.360;9.738;2022-10-13T03:38:22;6.40;95.70
7606;DHT22;3844;53.360;9.738;2022-10-13T03:40:22;6.40;95.70
7606;DHT22;3844;53.360;9.738;2022-10-13T03:42:24;6.40;95.70
7606;DHT22;3844;53.360;9.738;2022-10-13T03:46:28;6.40;95.70
7606;DHT22;3844;53.360;9.738;2022-10-13T03:48:29;6.50;95.70
7606;DHT22;3844;53.360;9.738;2022-10-13T03:50:30;6.50;95.70
7606;DHT22;3844;53.360;9.738;2022-10-13T03:52:31;6.50;95.70
7606;DHT22;3844;53.360;9.738;2022-10-13T03:54:32;6.50;95.70
7606;DHT22;3844;53.360;9.738;2022-10-13T03:58:35;6.60;95.70
7606;DHT22;3844;53.360;9.738;2022-10-13T04:02:36;6.60;95.70
7606;DHT22;3844;53.360;9.738;2022-10-13T04:06:38;6.50;95.70
7606;DHT22;3844;53.360;9.738;2022-10-13T04:08:39;6.50;95.70
7606;DHT22;3844;53.360;9.738;2022-10-13T04:10:40;6.40;95.70
7606;DHT22;3844;53.360;9.738;2022-10-13T04:12:41;6.40;95.70
7606;DHT22;3844;53.360;9.738;2022-10-13T04:16:43;6.40;95.70
7606;DHT22;3844;53.360;9.738;2022-10-13T04:18:44;6.40;95.70
7606;DHT22;3844;53.360;9.738;2022-10-13T04:20:45;6.40;95.70
7606;DHT22;3844;53.360;9.738;2022-10-13T04:24:47;6.40;95.70
7606;DHT22;3844;53.360;9.738;2022-10-13T04:26:47;6.30;95.70
7606;DHT22;3844;53.360;9.738;2022-10-13T04:28:49;6.30;95.70
7606;DHT22;3844;53.360;9.738;2022-10-13T04:30:51;6.30;95.70
7606;DHT22;3844;53.360;9.738;2022-10-13T04:32:51;6.30;95.70
7606;DHT22;3844;53.360;9.738;2022-10-13T04:34:52;6.30;95.70
7606;DHT22;3844;53.360;9.738;2022-10-13T04:36:53;6.30;95.70
7606;DHT22;3844;53.360;9.738;2022-10-13T04:38:54;6.20;95.70
7606;DHT22;3844;53.360;9.738;2022-10-13T04:40:54;6.20;95.70
7606;DHT22;3844;53.360;9.738;2022-10-13T04:42:55;6.20;95.70
7606;DHT22;3844;53.360;9.738;2022-10-13T04:44:55;6.20;95.70
7606;DHT22;3844;53.360;9.738;2022-10-13T04:46:56;6.20;95.70
7606;DHT22;3844;53.360;9.738;2022-10-13T04:48:57;6.20;95.70
7606;DHT22;3844;53.360;9.738;2022-10-13T04:51:03;6.20;95.70
7606;DHT22;3844;53.360;9.738;2022-10-13T04:53:04;6.30;95.70
7606;DHT22;3844;53.360;9.738;2022-10-13T04:55:05;6.30;95.70
7606;DHT22;3844;53.360;9.738;2022-10-13T04:57:06;6.30;95.70
7606;DHT22;3844;53.360;9.738;2022-10-13T04:59:07;6.30;95.70
7606;DHT22;3844;53.360;9.738;2022-10-13T05:01:15;6.30;95.70
7606;DHT22;3844;53.360;9.738;2022-10-13T05:03:16;6.30;95.70
7606;DHT22;3844;53.360;9.738;2022-10-13T05:05:17;6.30;95.70
7606;DHT22;3844;53.360;9.738;2022-10-13T05:09:19;6.40;95.70
7606;DHT22;3844;53.360;9.738;2022-10-13T05:11:22;6.40;95.70
7606;DHT22;3844;53.360;9.738;2022-10-13T05:13:24;6.40;95.70
7606;DHT22;3844;53.360;9.738;2022-10-13T05:15:25;6.50;95.70
7606;DHT22;3844;53.360;9.738;2022-10-13T05:17:28;6.50;95.70
7606;DHT22;3844;53.360;9.738;2022-10-13T05:19:30;6.50;95.70
7606;DHT22;3844;53.360;9.738;2022-10-13T05:21:31;6.50;95.70
7606;DHT22;3844;53.360;9.738;2022-10-13T05:25:36;6.60;95.70
7606;DHT22;3844;53.360;9.738;2022-10-13T05:27:37;6.60;95.70
7606;DHT22;3844;53.360;9.738;2022-10-13T05:29:38;6.60;95.70
7606;DHT22;3844;53.360;9.738;2022-10-13T05:31:39;6.60;95.70
7606;DHT22;3844;53.360;9.738;2022-10-13T05:33:40;6.70;95.70
7606;DHT22;3844;53.360;9.738;2022-10-13T05:35:41;6.70;95.70
7606;DHT22;3844;53.360;9.738;2022-10-13T05:37:42;6.70;95.70
7606;DHT22;3844;53.360;9.738;2022-10-13T05:39:43;6.70;95.70
7606;DHT22;3844;53.360;9.738;2022-10-13T05:41:44;6.80;95.70
7606;DHT22;3844;53.360;9.738;2022-10-13T05:43:45;6.80;95.70
7606;DHT22;3844;53.360;9.738;2022-10-13T05:45:46;6.80;95.70
7606;DHT22;3844;53.360;9.738;2022-10-13T05:47:46;6.90;95.70
7606;DHT22;3844;53.360;9.738;2022-10-13T05:49:47;6.90;95.70
7606;DHT22;3844;53.360;9.738;2022-10-13T05:51:50;6.90;95.70
7606;DHT22;3844;53.360;9.738;2022-10-13T05:54:08;6.90;95.70
7606;DHT22;3844;53.360;9.738;2022-10-13T05:56:13;6.90;95.70
7606;DHT22;3844;53.360;9.738;2022-10-13T05:58:16;6.90;95.70
7606;DHT22;3844;53.360;9.738;2022-10-13T06:00:17;7.00;95.70
7606;DHT22;3844;53.360;9.738;2022-10-13T06:02:21;7.00;95.70
7606;DHT22;3844;53.360;9.738;2022-10-13T06:04:25;7.00;95.70
7606;DHT22;3844;53.360;9.738;2022-10-13T06:06:29;7.10;95.70
7606;DHT22;3844;53.360;9.738;2022-10-13T06:08:30;7.10;95.70
7606;DHT22;3844;53.360;9.738;2022-10-13T06:10:31;7.10;95.70
7606;DHT22;3844;53.360;9.738;2022-10-13T06:12:31;7.20;95.70
7606;DHT22;3844;53.360;9.738;2022-10-13T06:14:32;7.20;95.70
7606;DHT22;3844;53.360;9.738;2022-10-13T06:16:34;7.30;95.70
7606;DHT22;3844;53.360;9.738;2022-10-13T06:18:36;7.30;95.70
7606;DHT22;3844;53.360;9.738;2022-10-13T06:20:37;7.40;95.70
7606;DHT22;3844;53.360;9.738;2022-10-13T06:22:37;7.40;95.70
7606;DHT22;3844;53.360;9.738;2022-10-13T06:24:38;7.50;95.70
7606;DHT22;3844;53.360;9.738;2022-10-13T06:26:39;7.50;95.70
7606;DHT22;3844;53.360;9.738;2022-10-13T06:28:40;7.60;95.70
7606;DHT22;3844;53.360;9.738;2022-10-13T06:30:40;7.70;95.70
7606;DHT22;3844;53.360;9.738;2022-10-13T06:32:42;7.70;95.70
7606;DHT22;3844;53.360;9.738;2022-10-13T06:34:43;7.80;95.70
7606;DHT22;3844;53.360;9.738;2022-10-13T06:36:44;7.90;95.70
7606;DHT22;3844;53.360;9.738;2022-10-13T06:40:46;8.00;95.70
7606;DHT22;3844;53.360;9.738;2022-10-13T06:42:50;8.10;95.70
7606;DHT22;3844;53.360;9.738;2022-10-13T06:44:51;8.20;95.70
7606;DHT22;3844;53.360;9.738;2022-10-13T06:46:51;8.20;95.70
7606;DHT22;3844;53.360;9.738;2022-10-13T06:48:52;8.30;95.70
7606;DHT22;3844;53.360;9.738;2022-10-13T06:50:53;8.40;95.70
7606;DHT22;3844;53.360;9.738;2022-10-13T06:52:54;8.50;95.70
7606;DHT22;3844;53.360;9.738;2022-10-13T06:54:56;8.50;95.70
7606;DHT22;3844;53.360;9.738;2022-10-13T06:56:56;8.60;95.70
7606;DHT22;3844;53.360;9.738;2022-10-13T06:58:57;8.60;95.70
7606;DHT22;3844;53.360;9.738;2022-10-13T07:00:58;8.70;95.70
7606;DHT22;3844;53.360;9.738;2022-10-13T07:02:59;8.70;95.70
7606;DHT22;3844;53.360;9.738;2022-10-13T07:04:59;8.80;95.70
7606;DHT22;3844;53.360;9.738;2022-10-13T07:07:00;8.90;95.70
7606;DHT22;3844;53.360;9.738;2022-10-13T07:09:04;9.00;95.70
7606;DHT22;3844;53.360;9.738;2022-10-13T07:11:07;9.00;95.70
7606;DHT22;3844;53.360;9.738;2022-10-13T07:13:08;9.10;95.70
7606;DHT22;3844;53.360;9.738;2022-10-13T07:15:09;9.10;95.70
7606;DHT22;3844;53.360;9.738;2022-10-13T07:17:10;9.20;95.70
7606;DHT22;3844;53.360;9.738;2022-10-13T07:19:11;9.20;95.70
7606;DHT22;3844;53.360;9.738;2022-10-13T07:21:11;9.30;95.70
7606;DHT22;3844;53.360;9.738;2022-10-13T07:23:12;9.30;95.70
7606;DHT22;3844;53.360;9.738;2022-10-13T07:25:14;9.40;95.70
7606;DHT22;3844;53.360;9.738;2022-10-13T07:27:14;9.50;95.70
7606;DHT22;3844;53.360;9.738;2022-10-13T07:29:15;9.60;95.70
7606;DHT22;3844;53.360;9.738;2022-10-13T07:31:18;9.70;95.70
7606;DHT22;3844;53.360;9.738;2022-10-13T07:33:19;9.70;95.70
7606;DHT22;3844;53.360;9.738;2022-10-13T07:35:20;9.80;95.70
7606;DHT22;3844;53.360;9.738;2022-10-13T07:37:25;9.90;95.70
7606;DHT22;3844;53.360;9.738;2022-10-13T07:39:26;10.00;95.70
7606;DHT22;3844;53.360;9.738;2022-10-13T07:41:27;10.10;95.70
7606;DHT22;3844;53.360;9.738;2022-10-13T07:43:28;10.10;95.70
7606;DHT22;3844;53.360;9.738;2022-10-13T07:45:29;10.10;95.70
7606;DHT22;3844;53.360;9.738;2022-10-13T07:47:29;10.20;95.70
7606;DHT22;3844;53.360;9.738;2022-10-13T07:51:31;10.30;95.70
7606;DHT22;3844;53.360;9.738;2022-10-13T07:53:33;10.40;95.70
7606;DHT22;3844;53.360;9.738;2022-10-13T07:55:35;10.50;95.70
7606;DHT22;3844;53.360;9.738;2022-10-13T07:57:36;10.50;95.70
7606;DHT22;3844;53.360;9.738;2022-10-13T07:59:37;10.60;95.70
7606;DHT22;3844;53.360;9.738;2022-10-13T08:01:38;10.70;95.70
7606;DHT22;3844;53.360;9.738;2022-10-13T08:03:40;10.80;95.70
7606;DHT22;3844;53.360;9.738;2022-10-13T08:05:41;10.90;95.70
7606;DHT22;3844;53.360;9.738;2022-10-13T08:07:42;10.90;95.70
7606;DHT22;3844;53.360;9.738;2022-10-13T08:09:43;11.00;95.70
7606;DHT22;3844;53.360;9.738;2022-10-13T08:11:44;11.00;95.70
7606;DHT22;3844;53.360;9.738;2022-10-13T08:13:49;11.10;95.70
7606;DHT22;3844;53.360;9.738;2022-10-13T08:15:50;11.10;95.70
7606;DHT22;3844;53.360;9.738;2022-10-13T08:17:51;11.20;95.70
7606;DHT22;3844;53.360;9.738;2022-10-13T08:19:51;11.20;95.70
7606;DHT22;3844;53.360;9.738;2022-10-13T08:21:53;11.30;95.70
7606;DHT22;3844;53.360;9.738;2022-10-13T08:23:53;11.40;95.70
7606;DHT22;3844;53.360;9.738;2022-10-13T08:25:54;11.40;95.70
7606;DHT22;3844;53.360;9.738;2022-10-13T08:27:55;11.50;95.70
7606;DHT22;3844;53.360;9.738;2022-10-13T08:29:56;11.50;95.70
7606;DHT22;3844;53.360;9.738;2022-10-13T08:31:57;11.60;95.70
7606;DHT22;3844;53.360;9.738;2022-10-13T08:33:57;11.70;95.70
7606;DHT22;3844;53.360;9.738;2022-10-13T08:35:58;11.80;95.70
7606;DHT22;3844;53.360;9.738;2022-10-13T08:40:00;12.00;95.70
7606;DHT22;3844;53.360;9.738;2022-10-13T08:42:00;12.10;95.70
7606;DHT22;3844;53.360;9.738;2022-10-13T08:44:25;12.20;95.70
7606;DHT22;3844;53.360;9.738;2022-10-13T08:46:32;12.30;95.70
7606;DHT22;3844;53.360;9.738;2022-10-13T08:48:39;12.40;95.20
7606;DHT22;3844;53.360;9.738;2022-10-13T08:50:42;12.40;94.90
7606;DHT22;3844;53.360;9.738;2022-10-13T08:52:51;12.50;95.20
7606;DHT22;3844;53.360;9.738;2022-10-13T08:54:54;12.70;95.00
7606;DHT22;3844;53.360;9.738;2022-10-13T08:56:55;12.80;95.10
7606;DHT22;3844;53.360;9.738;2022-10-13T08:58:56;12.90;94.50
7606;DHT22;3844;53.360;9.738;2022-10-13T09:03:25;13.20;93.20
7606;DHT22;3844;53.360;9.738;2022-10-13T09:05:40;13.40;92.90
7606;DHT22;3844;53.360;9.738;2022-10-13T09:07:44;13.50;92.10
7606;DHT22;3844;53.360;9.738;2022-10-13T09:09:49;13.60;91.10
7606;DHT22;3844;53.360;9.738;2022-10-13T09:11:51;13.70;91.70
7606;DHT22;3844;53.360;9.738;2022-10-13T09:14:00;13.80;90.50
7606;DHT22;3844;53.360;9.738;2022-10-13T09:16:01;13.70;89.10
7606;DHT22;3844;53.360;9.738;2022-10-13T09:18:10;13.70;89.20
7606;DHT22;3844;53.360;9.738;2022-10-13T09:20:23;13.70;90.10
7606;DHT22;3844;53.360;9.738;2022-10-13T09:22:29;13.70;90.30
7606;DHT22;3844;53.360;9.738;2022-10-13T09:24:30;13.80;90.10
7606;DHT22;3844;53.360;9.738;2022-10-13T09:26:36;13.90;89.80
7606;DHT22;3844;53.360;9.738;2022-10-13T09:28:37;13.90;89.90
7606;DHT22;3844;53.360;9.738;2022-10-13T09:30:41;13.90;88.60
7606;DHT22;3844;53.360;9.738;2022-10-13T09:32:41;14.00;89.70
7606;DHT22;3844;53.360;9.738;2022-10-13T09:34:42;14.10;89.70
7606;DHT22;3844;53.360;9.738;2022-10-13T09:37:01;14.30;89.00
7606;DHT22;3844;53.360;9.738;2022-10-13T09:39:14;14.40;88.00
7606;DHT22;3844;53.360;9.738;2022-10-13T09:41:19;14.50;87.90
7606;DHT22;3844;53.360;9.738;2022-10-13T09:43:42;14.50;86.80
7606;DHT22;3844;53.360;9.738;2022-10-13T09:45:43;14.50;87.60
7606;DHT22;3844;53.360;9.738;2022-10-13T09:48:05;14.40;87.00
7606;DHT22;3844;53.360;9.738;2022-10-13T09:50:22;14.40;87.60
7606;DHT22;3844;53.360;9.738;2022-10-13T09:52:23;14.40;88.30
7606;DHT22;3844;53.360;9.738;2022-10-13T09:54:26;14.40;88.40
7606;DHT22;3844;53.360;9.738;2022-10-13T09:56:42;14.40;88.70
7606;DHT22;3844;53.360;9.738;2022-10-13T09:58:59;14.50;88.30
7606;DHT22;3844;53.360;9.738;2022-10-13T10:01:04;14.60;87.10
7606;DHT22;3844;53.360;9.738;2022-10-13T10:03:16;14.60;86.70
7606;DHT22;3844;53.360;9.738;2022-10-13T10:05:26;14.70;87.00
7606;DHT22;3844;53.360;9.738;2022-10-13T10:07:30;14.80;87.20
7606;DHT22;3844;53.360;9.738;2022-10-13T10:09:43;14.90;86.60
7606;DHT22;3844;53.360;9.738;2022-10-13T10:11:46;15.00;86.70
7606;DHT22;3844;53.360;9.738;2022-10-13T10:13:51;15.00;86.40
7606;DHT22;3844;53.360;9.738;2022-10-13T10:22:35;15.70;85.50
7606;DHT22;3844;53.360;9.738;2022-10-13T10:27:14;16.10;82.20
7606;DHT22;3844;53.360;9.738;2022-10-13T10:29:30;16.10;82.70
7606;DHT22;3844;53.360;9.738;2022-10-13T10:36:37;16.20;83.50
7606;DHT22;3844;53.360;9.738;2022-10-13T10:39:02;16.30;82.20
7606;DHT22;3844;53.360;9.738;2022-10-13T10:45:24;16.90;79.80
7606;DHT22;3844;53.360;9.738;2022-10-13T10:47:46;16.90;79.90
7606;DHT22;3844;53.360;9.738;2022-10-13T10:49:47;16.80;80.30
7606;DHT22;3844;53.360;9.738;2022-10-13T10:51:49;16.80;81.50
7606;DHT22;3844;53.360;9.738;2022-10-13T10:54:25;17.00;82.00
7606;DHT22;3844;53.360;9.738;2022-10-13T11:00:24;17.60;80.50
7606;DHT22;3844;53.360;9.738;2022-10-13T11:04:46;17.70;79.20
7606;DHT22;3844;53.360;9.738;2022-10-13T11:06:47;17.70;78.90
7606;DHT22;3844;53.360;9.738;2022-10-13T11:08:49;17.70;79.20
7606;DHT22;3844;53.360;9.738;2022-10-13T11:13:22;18.10;79.00
7606;DHT22;3844;53.360;9.738;2022-10-13T11:15:27;18.40;79.30
7606;DHT22;3844;53.360;9.738;2022-10-13T11:17:31;18.70;78.30
7606;DHT22;3844;53.360;9.738;2022-10-13T11:19:37;19.00;77.90
7606;DHT22;3844;53.360;9.738;2022-10-13T11:23:54;19.90;75.30
7606;DHT22;3844;53.360;9.738;2022-10-13T11:26:28;20.10;73.10
7606;DHT22;3844;53.360;9.738;2022-10-13T11:30:46;19.90;73.80
7606;DHT22;3844;53.360;9.738;2022-10-13T11:32:47;19.70;73.10
7606;DHT22;3844;53.360;9.738;2022-10-13T11:37:15;19.30;74.80
7606;DHT22;3844;53.360;9.738;2022-10-13T11:41:33;19.00;75.70
7606;DHT22;3844;53.360;9.738;2022-10-13T11:44:06;18.50;76.20
7606;DHT22;3844;53.360;9.738;2022-10-13T11:48:41;17.90;78.30
7606;DHT22;3844;53.360;9.738;2022-10-13T11:50:59;17.60;78.30
7606;DHT22;3844;53.360;9.738;2022-10-13T11:57:37;17.60;80.30
7606;DHT22;3844;53.360;9.738;2022-10-13T11:59:45;17.80;79.90
7606;DHT22;3844;53.360;9.738;2022-10-13T12:01:46;17.90;79.60
7606;DHT22;3844;53.360;9.738;2022-10-13T12:03:46;17.90;79.40
7606;DHT22;3844;53.360;9.738;2022-10-13T12:05:48;18.00;79.00
7606;DHT22;3844;53.360;9.738;2022-10-13T12:07:51;17.90;78.80
7606;DHT22;3844;53.360;9.738;2022-10-13T12:09:55;17.80;79.50
7606;DHT22;3844;53.360;9.738;2022-10-13T12:12:11;17.70;79.40
7606;DHT22;3844;53.360;9.738;2022-10-13T12:14:21;17.70;80.40
7606;DHT22;3844;53.360;9.738;2022-10-13T12:16:23;17.90;80.70
7606;DHT22;3844;53.360;9.738;2022-10-13T12:18:27;18.30;80.20
7606;DHT22;3844;53.360;9.738;2022-10-13T12:20:31;18.80;79.50
7606;DHT22;3844;53.360;9.738;2022-10-13T12:22:32;19.30;77.80
7606;DHT22;3844;53.360;9.738;2022-10-13T12:24:33;19.90;77.40
7606;DHT22;3844;53.360;9.738;2022-10-13T12:26:33;20.40;74.60
7606;DHT22;3844;53.360;9.738;2022-10-13T12:30:52;21.10;70.50
7606;DHT22;3844;53.360;9.738;2022-10-13T12:32:56;21.00;71.00
7606;DHT22;3844;53.360;9.738;2022-10-13T12:35:19;21.00;71.00
7606;DHT22;3844;53.360;9.738;2022-10-13T12:37:29;21.10;71.80
7606;DHT22;3844;53.360;9.738;2022-10-13T12:39:33;21.10;70.30
7606;DHT22;3844;53.360;9.738;2022-10-13T12:41:39;20.90;70.00
7606;DHT22;3844;53.360;9.738;2022-10-13T12:43:42;20.40;72.40
7606;DHT22;3844;53.360;9.738;2022-10-13T12:45:43;20.10;73.00
7606;DHT22;3844;53.360;9.738;2022-10-13T12:49:44;19.40;73.70
7606;DHT22;3844;53.360;9.738;2022-10-13T12:51:54;19.20;74.50
7606;DHT22;3844;53.360;9.738;2022-10-13T12:53:55;19.00;74.10
7606;DHT22;3844;53.360;9.738;2022-10-13T12:55:58;18.80;75.70
7606;DHT22;3844;53.360;9.738;2022-10-13T12:58:00;18.80;75.80
7606;DHT22;3844;53.360;9.738;2022-10-13T13:00:03;18.60;76.10
7606;DHT22;3844;53.360;9.738;2022-10-13T13:02:21;18.50;77.00
7606;DHT22;3844;53.360;9.738;2022-10-13T13:04:28;18.30;77.20
7606;DHT22;3844;53.360;9.738;2022-10-13T13:06:34;18.20;77.40
7606;DHT22;3844;53.360;9.738;2022-10-13T13:08:35;18.20;77.90
7606;DHT22;3844;53.360;9.738;2022-10-13T13:10:36;18.10;78.30
7606;DHT22;3844;53.360;9.738;2022-10-13T13:12:37;18.20;78.60
7606;DHT22;3844;53.360;9.738;2022-10-13T13:14:40;18.20;78.40
7606;DHT22;3844;53.360;9.738;2022-10-13T13:19:03;18.00;78.80
7606;DHT22;3844;53.360;9.738;2022-10-13T13:21:05;17.90;78.00
7606;DHT22;3844;53.360;9.738;2022-10-13T13:23:06;17.90;78.90
7606;DHT22;3844;53.360;9.738;2022-10-13T13:25:07;17.90;79.00
7606;DHT22;3844;53.360;9.738;2022-10-13T13:29:24;17.60;79.40
7606;DHT22;3844;53.360;9.738;2022-10-13T13:31:25;17.50;80.20
7606;DHT22;3844;53.360;9.738;2022-10-13T13:33:26;17.40;80.20
7606;DHT22;3844;53.360;9.738;2022-10-13T13:35:26;17.30;81.10
7606;DHT22;3844;53.360;9.738;2022-10-13T13:37:28;17.20;81.00
7606;DHT22;3844;53.360;9.738;2022-10-13T13:39:30;17.10;81.20
7606;DHT22;3844;53.360;9.738;2022-10-13T13:41:30;17.00;81.20
7606;DHT22;3844;53.360;9.738;2022-10-13T13:45:32;16.90;82.20
7606;DHT22;3844;53.360;9.738;2022-10-13T13:47:33;16.90;82.30
7606;DHT22;3844;53.360;9.738;2022-10-13T13:49:34;16.90;83.10
7606;DHT22;3844;53.360;9.738;2022-10-13T13:51:34;16.80;82.80
7606;DHT22;3844;53.360;9.738;2022-10-13T13:53:35;16.80;82.90
7606;DHT22;3844;53.360;9.738;2022-10-13T13:55:37;16.80;83.30
7606;DHT22;3844;53.360;9.738;2022-10-13T13:57:37;16.80;83.80
7606;DHT22;3844;53.360;9.738;2022-10-13T13:59:39;16.80;83.70
7606;DHT22;3844;53.360;9.738;2022-10-13T14:01:40;16.80;83.00
7606;DHT22;3844;53.360;9.738;2022-10-13T14:03:40;16.80;83.40
7606;DHT22;3844;53.360;9.738;2022-10-13T14:05:41;16.90;83.60
7606;DHT22;3844;53.360;9.738;2022-10-13T14:07:42;17.00;82.20
7606;DHT22;3844;53.360;9.738;2022-10-13T14:09:42;17.10;82.10
7606;DHT22;3844;53.360;9.738;2022-10-13T14:11:43;17.20;81.50
7606;DHT22;3844;53.360;9.738;2022-10-13T14:13:44;17.30;82.00
7606;DHT22;3844;53.360;9.738;2022-10-13T14:15:44;17.30;80.50
7606;DHT22;3844;53.360;9.738;2022-10-13T14:17:45;17.20;81.10
7606;DHT22;3844;53.360;9.738;2022-10-13T14:19:46;17.20;81.60
7606;DHT22;3844;53.360;9.738;2022-10-13T14:21:46;17.20;81.80
7606;DHT22;3844;53.360;9.738;2022-10-13T14:23:47;17.30;82.10
7606;DHT22;3844;53.360;9.738;2022-10-13T14:25:48;17.40;82.20
7606;DHT22;3844;53.360;9.738;2022-10-13T14:27:48;17.50;81.40
7606;DHT22;3844;53.360;9.738;2022-10-13T14:29:49;17.50;81.50
7606;DHT22;3844;53.360;9.738;2022-10-13T14:31:50;17.50;80.90
7606;DHT22;3844;53.360;9.738;2022-10-13T14:33:51;17.50;80.00
7606;DHT22;3844;53.360;9.738;2022-10-13T14:35:58;17.40;80.70
7606;DHT22;3844;53.360;9.738;2022-10-13T14:37:59;17.30;80.60
7606;DHT22;3844;53.360;9.738;2022-10-13T14:40:00;17.30;81.50
7606;DHT22;3844;53.360;9.738;2022-10-13T14:42:01;17.20;81.40
7606;DHT22;3844;53.360;9.738;2022-10-13T14:44:02;17.10;81.80
7606;DHT22;3844;53.360;9.738;2022-10-13T14:46:04;17.10;82.30
7606;DHT22;3844;53.360;9.738;2022-10-13T14:48:05;17.10;82.70
7606;DHT22;3844;53.360;9.738;2022-10-13T14:50:06;17.00;82.80
7606;DHT22;3844;53.360;9.738;2022-10-13T14:52:07;17.00;83.60
7606;DHT22;3844;53.360;9.738;2022-10-13T14:54:08;17.00;83.30
7606;DHT22;3844;53.360;9.738;2022-10-13T14:56:17;17.00;83.70
7606;DHT22;3844;53.360;9.738;2022-10-13T14:58:18;17.00;83.60
7606;DHT22;3844;53.360;9.738;2022-10-13T15:00:19;16.90;83.90
7606;DHT22;3844;53.360;9.738;2022-10-13T15:02:21;16.80;84.10
7606;DHT22;3844;53.360;9.738;2022-10-13T15:04:22;16.80;84.20
7606;DHT22;3844;53.360;9.738;2022-10-13T15:06:24;16.70;84.50
7606;DHT22;3844;53.360;9.738;2022-10-13T15:08:25;16.70;85.00
7606;DHT22;3844;53.360;9.738;2022-10-13T15:10:25;16.60;85.30
7606;DHT22;3844;53.360;9.738;2022-10-13T15:12:26;16.50;85.80
7606;DHT22;3844;53.360;9.738;2022-10-13T15:14:27;16.40;86.20
7606;DHT22;3844;53.360;9.738;2022-10-13T15:16:29;16.40;86.30